Ludlow, Mississippi
Current Conditions -  °F | °C
As of 8:54 PM on Sunday 21 Dec 2014 (Local Time) from KJAN Reporting Station
Haze Haze  
Wind Chill: 50°   Ceiling: 500
Heat Index: 50°   Visibility: 6mi
Dew Point: 48°   Wind: 9mph
Humidity: 93%   Direction: 150°SSE
Pressure: 30"   Gusts: NA
Location:  32.57°N, 89.72°W
Report Text: KJAN 220254Z 15008KT 6SM BR OVC005 10/09 A3000 RMK AO2 SLP158 T01000089 58001
Loading
Personal Weather Stations






























Interactive Weather Map New forecast layout! Learn more

10-Day Weather Forecast

Advertisements
Track Severe Weather on mobile